sensor_id;sensor_type;location;lat;lon;timestamp;P1;durP1;ratioP1;P2;durP2;ratioP2
52956;SDS011;38819;42.692;23.342;2023-07-13T00:00:27;9.75;;;4.18;;
52956;SDS011;38819;42.692;23.342;2023-07-13T00:02:53;8.38;;;4.20;;
52956;SDS011;38819;42.692;23.342;2023-07-13T00:05:19;9.88;;;4.18;;
52956;SDS011;38819;42.692;23.342;2023-07-13T00:07:48;6.32;;;4.32;;
52956;SDS011;38819;42.692;23.342;2023-07-13T00:10:15;9.70;;;4.10;;
52956;SDS011;38819;42.692;23.342;2023-07-13T00:12:41;4.88;;;3.95;;
52956;SDS011;38819;42.692;23.342;2023-07-13T00:15:11;6.85;;;4.28;;
52956;SDS011;38819;42.692;23.342;2023-07-13T00:17:41;5.10;;;4.05;;
52956;SDS011;38819;42.692;23.342;2023-07-13T00:20:09;8.70;;;3.88;;
52956;SDS011;38819;42.692;23.342;2023-07-13T00:22:36;10.93;;;5.37;;
52956;SDS011;38819;42.692;23.342;2023-07-13T00:25:01;10.30;;;4.70;;
52956;SDS011;38819;42.692;23.342;2023-07-13T00:27:27;10.65;;;5.00;;
52956;SDS011;38819;42.692;23.342;2023-07-13T00:32:20;9.57;;;4.80;;
52956;SDS011;38819;42.692;23.342;2023-07-13T00:34:45;16.27;;;5.57;;
52956;SDS011;38819;42.692;23.342;2023-07-13T00:37:12;8.38;;;5.22;;
52956;SDS011;38819;42.692;23.342;2023-07-13T00:39:37;9.50;;;5.68;;
52956;SDS011;38819;42.692;23.342;2023-07-13T00:42:04;6.65;;;4.72;;
52956;SDS011;38819;42.692;23.342;2023-07-13T00:44:29;10.40;;;5.45;;
52956;SDS011;38819;42.692;23.342;2023-07-13T00:46:55;11.75;;;4.95;;
52956;SDS011;38819;42.692;23.342;2023-07-13T00:49:22;7.43;;;5.00;;
52956;SDS011;38819;42.692;23.342;2023-07-13T00:52:00;7.18;;;4.80;;
52956;SDS011;38819;42.692;23.342;2023-07-13T00:54:33;9.75;;;5.10;;
52956;SDS011;38819;42.692;23.342;2023-07-13T00:57:03;16.10;;;8.38;;
52956;SDS011;38819;42.692;23.342;2023-07-13T00:59:31;12.20;;;8.15;;
52956;SDS011;38819;42.692;23.342;2023-07-13T01:01:57;13.98;;;6.00;;
52956;SDS011;38819;42.692;23.342;2023-07-13T01:04:25;14.15;;;5.53;;
52956;SDS011;38819;42.692;23.342;2023-07-13T01:06:51;10.55;;;5.05;;
52956;SDS011;38819;42.692;23.342;2023-07-13T01:09:18;11.60;;;5.85;;
52956;SDS011;38819;42.692;23.342;2023-07-13T01:11:45;9.75;;;5.10;;
52956;SDS011;38819;42.692;23.342;2023-07-13T01:14:11;12.65;;;6.47;;
52956;SDS011;38819;42.692;23.342;2023-07-13T01:16:37;10.65;;;4.75;;
52956;SDS011;38819;42.692;23.342;2023-07-13T01:21:49;7.60;;;4.68;;
52956;SDS011;38819;42.692;23.342;2023-07-13T01:24:15;7.07;;;4.95;;
52956;SDS011;38819;42.692;23.342;2023-07-13T01:26:41;17.08;;;5.07;;
52956;SDS011;38819;42.692;23.342;2023-07-13T01:29:06;8.05;;;4.47;;
52956;SDS011;38819;42.692;23.342;2023-07-13T01:31:32;12.10;;;5.85;;
52956;SDS011;38819;42.692;23.342;2023-07-13T01:33:58;7.05;;;5.25;;
52956;SDS011;38819;42.692;23.342;2023-07-13T01:36:23;10.50;;;4.60;;
52956;SDS011;38819;42.692;23.342;2023-07-13T01:38:49;11.55;;;4.63;;
52956;SDS011;38819;42.692;23.342;2023-07-13T01:41:14;10.40;;;4.53;;
52956;SDS011;38819;42.692;23.342;2023-07-13T01:43:40;9.48;;;4.78;;
52956;SDS011;38819;42.692;23.342;2023-07-13T01:46:05;10.38;;;5.13;;
52956;SDS011;38819;42.692;23.342;2023-07-13T01:48:30;7.28;;;4.97;;
52956;SDS011;38819;42.692;23.342;2023-07-13T01:50:56;9.88;;;5.25;;
52956;SDS011;38819;42.692;23.342;2023-07-13T01:53:21;9.15;;;4.90;;
52956;SDS011;38819;42.692;23.342;2023-07-13T01:55:47;13.27;;;5.70;;
52956;SDS011;38819;42.692;23.342;2023-07-13T01:58:12;10.70;;;5.10;;
52956;SDS011;38819;42.692;23.342;2023-07-13T02:00:37;8.20;;;5.53;;
52956;SDS011;38819;42.692;23.342;2023-07-13T02:03:03;9.10;;;4.47;;
52956;SDS011;38819;42.692;23.342;2023-07-13T02:05:29;12.32;;;5.65;;
52956;SDS011;38819;42.692;23.342;2023-07-13T02:07:54;6.70;;;5.63;;
52956;SDS011;38819;42.692;23.342;2023-07-13T02:10:20;10.40;;;5.80;;
52956;SDS011;38819;42.692;23.342;2023-07-13T02:12:45;9.70;;;4.78;;
52956;SDS011;38819;42.692;23.342;2023-07-13T02:15:11;7.60;;;4.93;;
52956;SDS011;38819;42.692;23.342;2023-07-13T02:17:36;7.55;;;4.88;;
52956;SDS011;38819;42.692;23.342;2023-07-13T02:20:03;8.43;;;5.22;;
52956;SDS011;38819;42.692;23.342;2023-07-13T02:22:29;8.15;;;5.32;;
52956;SDS011;38819;42.692;23.342;2023-07-13T02:24:55;8.15;;;5.45;;
52956;SDS011;38819;42.692;23.342;2023-07-13T02:27:21;13.75;;;6.07;;
52956;SDS011;38819;42.692;23.342;2023-07-13T02:29:46;12.75;;;6.53;;
52956;SDS011;38819;42.692;23.342;2023-07-13T02:32:12;10.85;;;6.40;;
52956;SDS011;38819;42.692;23.342;2023-07-13T02:34:37;8.70;;;5.07;;
52956;SDS011;38819;42.692;23.342;2023-07-13T02:37:03;7.20;;;5.13;;
52956;SDS011;38819;42.692;23.342;2023-07-13T02:39:29;16.08;;;5.63;;
52956;SDS011;38819;42.692;23.342;2023-07-13T02:41:58;9.25;;;5.97;;
52956;SDS011;38819;42.692;23.342;2023-07-13T02:44:23;10.40;;;5.88;;
52956;SDS011;38819;42.692;23.342;2023-07-13T02:46:49;12.57;;;5.80;;
52956;SDS011;38819;42.692;23.342;2023-07-13T02:49:14;10.27;;;6.05;;
52956;SDS011;38819;42.692;23.342;2023-07-13T02:51:39;9.80;;;5.72;;
52956;SDS011;38819;42.692;23.342;2023-07-13T02:54:05;12.20;;;5.53;;
52956;SDS011;38819;42.692;23.342;2023-07-13T02:56:31;14.90;;;6.15;;
52956;SDS011;38819;42.692;23.342;2023-07-13T02:58:57;11.65;;;6.45;;
52956;SDS011;38819;42.692;23.342;2023-07-13T03:01:23;9.82;;;6.55;;
52956;SDS011;38819;42.692;23.342;2023-07-13T03:03:49;11.43;;;6.75;;
52956;SDS011;38819;42.692;23.342;2023-07-13T03:06:16;12.68;;;6.53;;
52956;SDS011;38819;42.692;23.342;2023-07-13T03:08:43;12.73;;;7.43;;
52956;SDS011;38819;42.692;23.342;2023-07-13T03:11:11;7.88;;;6.68;;
52956;SDS011;38819;42.692;23.342;2023-07-13T03:13:39;7.75;;;6.45;;
52956;SDS011;38819;42.692;23.342;2023-07-13T03:16:06;13.88;;;7.07;;
52956;SDS011;38819;42.692;23.342;2023-07-13T03:18:32;7.82;;;6.30;;
52956;SDS011;38819;42.692;23.342;2023-07-13T03:20:57;10.90;;;6.45;;
52956;SDS011;38819;42.692;23.342;2023-07-13T03:23:23;9.32;;;7.25;;
52956;SDS011;38819;42.692;23.342;2023-07-13T03:25:50;13.05;;;6.22;;
52956;SDS011;38819;42.692;23.342;2023-07-13T03:28:15;11.40;;;6.32;;
52956;SDS011;38819;42.692;23.342;2023-07-13T03:30:41;8.02;;;6.13;;
52956;SDS011;38819;42.692;23.342;2023-07-13T03:33:07;6.70;;;5.95;;
52956;SDS011;38819;42.692;23.342;2023-07-13T03:35:33;11.85;;;6.90;;
52956;SDS011;38819;42.692;23.342;2023-07-13T03:38:00;10.90;;;6.55;;
52956;SDS011;38819;42.692;23.342;2023-07-13T03:40:27;10.48;;;6.47;;
52956;SDS011;38819;42.692;23.342;2023-07-13T03:45:18;10.37;;;6.37;;
52956;SDS011;38819;42.692;23.342;2023-07-13T03:47:44;14.65;;;6.53;;
52956;SDS011;38819;42.692;23.342;2023-07-13T03:50:10;9.82;;;6.35;;
52956;SDS011;38819;42.692;23.342;2023-07-13T03:52:35;14.23;;;7.82;;
52956;SDS011;38819;42.692;23.342;2023-07-13T03:55:01;13.25;;;7.00;;
52956;SDS011;38819;42.692;23.342;2023-07-13T03:57:26;8.32;;;6.15;;
52956;SDS011;38819;42.692;23.342;2023-07-13T03:59:52;7.32;;;6.47;;
52956;SDS011;38819;42.692;23.342;2023-07-13T04:02:17;6.85;;;6.18;;
52956;SDS011;38819;42.692;23.342;2023-07-13T04:04:43;8.35;;;6.97;;
52956;SDS011;38819;42.692;23.342;2023-07-13T04:07:08;11.13;;;6.90;;
52956;SDS011;38819;42.692;23.342;2023-07-13T04:09:34;12.13;;;6.82;;
52956;SDS011;38819;42.692;23.342;2023-07-13T04:12:00;8.18;;;6.72;;
52956;SDS011;38819;42.692;23.342;2023-07-13T04:14:26;13.63;;;7.03;;
52956;SDS011;38819;42.692;23.342;2023-07-13T04:16:51;11.15;;;6.70;;
52956;SDS011;38819;42.692;23.342;2023-07-13T04:19:19;14.23;;;7.00;;
52956;SDS011;38819;42.692;23.342;2023-07-13T04:21:45;12.20;;;6.93;;
52956;SDS011;38819;42.692;23.342;2023-07-13T04:24:10;16.38;;;7.63;;
52956;SDS011;38819;42.692;23.342;2023-07-13T04:26:36;12.77;;;7.35;;
52956;SDS011;38819;42.692;23.342;2023-07-13T04:31:29;18.05;;;7.50;;
52956;SDS011;38819;42.692;23.342;2023-07-13T04:33:54;19.02;;;8.05;;
52956;SDS011;38819;42.692;23.342;2023-07-13T04:36:20;13.57;;;7.32;;
52956;SDS011;38819;42.692;23.342;2023-07-13T04:38:45;13.43;;;7.10;;
52956;SDS011;38819;42.692;23.342;2023-07-13T04:41:11;11.52;;;7.28;;
52956;SDS011;38819;42.692;23.342;2023-07-13T04:43:38;16.02;;;7.47;;
52956;SDS011;38819;42.692;23.342;2023-07-13T04:46:07;11.27;;;8.02;;
52956;SDS011;38819;42.692;23.342;2023-07-13T04:48:34;15.00;;;7.32;;
52956;SDS011;38819;42.692;23.342;2023-07-13T04:51:00;13.52;;;8.88;;
52956;SDS011;38819;42.692;23.342;2023-07-13T04:53:27;13.98;;;7.45;;
52956;SDS011;38819;42.692;23.342;2023-07-13T04:55:52;14.60;;;8.45;;
52956;SDS011;38819;42.692;23.342;2023-07-13T04:58:18;15.02;;;7.82;;
52956;SDS011;38819;42.692;23.342;2023-07-13T05:00:44;11.95;;;8.15;;
52956;SDS011;38819;42.692;23.342;2023-07-13T05:03:09;14.95;;;8.00;;
52956;SDS011;38819;42.692;23.342;2023-07-13T05:05:35;11.98;;;8.40;;
52956;SDS011;38819;42.692;23.342;2023-07-13T05:08:00;17.05;;;8.35;;
52956;SDS011;38819;42.692;23.342;2023-07-13T05:10:26;17.90;;;9.25;;
52956;SDS011;38819;42.692;23.342;2023-07-13T05:12:51;14.35;;;9.05;;
52956;SDS011;38819;42.692;23.342;2023-07-13T05:15:17;17.25;;;9.20;;
52956;SDS011;38819;42.692;23.342;2023-07-13T05:17:46;16.48;;;10.18;;
52956;SDS011;38819;42.692;23.342;2023-07-13T05:20:12;13.68;;;8.93;;
52956;SDS011;38819;42.692;23.342;2023-07-13T05:22:38;15.10;;;8.60;;
52956;SDS011;38819;42.692;23.342;2023-07-13T05:25:04;20.88;;;9.80;;
52956;SDS011;38819;42.692;23.342;2023-07-13T05:27:31;13.45;;;8.18;;
52956;SDS011;38819;42.692;23.342;2023-07-13T05:29:56;16.55;;;8.77;;
52956;SDS011;38819;42.692;23.342;2023-07-13T05:32:22;18.35;;;8.95;;
52956;SDS011;38819;42.692;23.342;2023-07-13T05:34:47;11.43;;;8.75;;
52956;SDS011;38819;42.692;23.342;2023-07-13T05:37:12;16.00;;;9.73;;
52956;SDS011;38819;42.692;23.342;2023-07-13T05:39:38;23.58;;;8.93;;
52956;SDS011;38819;42.692;23.342;2023-07-13T05:42:03;14.20;;;9.38;;
52956;SDS011;38819;42.692;23.342;2023-07-13T05:44:29;15.50;;;9.73;;
52956;SDS011;38819;42.692;23.342;2023-07-13T05:46:55;16.15;;;8.65;;
52956;SDS011;38819;42.692;23.342;2023-07-13T05:49:21;12.55;;;8.57;;
52956;SDS011;38819;42.692;23.342;2023-07-13T05:51:47;25.80;;;9.68;;
52956;SDS011;38819;42.692;23.342;2023-07-13T05:54:13;25.95;;;9.48;;
52956;SDS011;38819;42.692;23.342;2023-07-13T05:56:38;14.18;;;8.88;;
52956;SDS011;38819;42.692;23.342;2023-07-13T05:59:04;22.33;;;8.77;;
52956;SDS011;38819;42.692;23.342;2023-07-13T06:01:29;14.32;;;10.75;;
52956;SDS011;38819;42.692;23.342;2023-07-13T06:03:56;22.48;;;13.02;;
52956;SDS011;38819;42.692;23.342;2023-07-13T06:06:21;18.25;;;13.30;;
52956;SDS011;38819;42.692;23.342;2023-07-13T06:08:47;19.23;;;11.50;;
52956;SDS011;38819;42.692;23.342;2023-07-13T06:11:14;15.43;;;9.50;;
52956;SDS011;38819;42.692;23.342;2023-07-13T06:13:41;15.60;;;7.18;;
52956;SDS011;38819;42.692;23.342;2023-07-13T06:16:07;13.10;;;8.70;;
52956;SDS011;38819;42.692;23.342;2023-07-13T06:18:34;15.30;;;8.88;;
52956;SDS011;38819;42.692;23.342;2023-07-13T06:21:05;17.95;;;9.35;;
52956;SDS011;38819;42.692;23.342;2023-07-13T06:23:31;12.00;;;8.23;;
52956;SDS011;38819;42.692;23.342;2023-07-13T06:25:57;15.95;;;8.60;;
52956;SDS011;38819;42.692;23.342;2023-07-13T06:28:22;15.32;;;7.97;;
52956;SDS011;38819;42.692;23.342;2023-07-13T06:30:47;15.90;;;8.60;;
52956;SDS011;38819;42.692;23.342;2023-07-13T06:33:13;15.45;;;7.85;;
52956;SDS011;38819;42.692;23.342;2023-07-13T06:35:38;12.15;;;8.60;;
52956;SDS011;38819;42.692;23.342;2023-07-13T06:38:03;16.88;;;9.20;;
52956;SDS011;38819;42.692;23.342;2023-07-13T06:40:29;16.65;;;9.25;;
52956;SDS011;38819;42.692;23.342;2023-07-13T06:42:56;17.57;;;9.17;;
52956;SDS011;38819;42.692;23.342;2023-07-13T06:45:21;17.48;;;9.38;;
52956;SDS011;38819;42.692;23.342;2023-07-13T06:47:47;15.57;;;8.07;;
52956;SDS011;38819;42.692;23.342;2023-07-13T06:50:12;16.70;;;8.60;;
52956;SDS011;38819;42.692;23.342;2023-07-13T06:52:38;12.30;;;8.35;;
52956;SDS011;38819;42.692;23.342;2023-07-13T06:55:03;16.83;;;9.93;;
52956;SDS011;38819;42.692;23.342;2023-07-13T06:57:29;17.67;;;10.82;;
52956;SDS011;38819;42.692;23.342;2023-07-13T06:59:54;19.38;;;9.20;;
52956;SDS011;38819;42.692;23.342;2023-07-13T07:02:20;19.08;;;8.98;;
52956;SDS011;38819;42.692;23.342;2023-07-13T07:04:45;11.93;;;7.75;;
52956;SDS011;38819;42.692;23.342;2023-07-13T07:07:10;24.98;;;9.45;;
52956;SDS011;38819;42.692;23.342;2023-07-13T07:09:36;17.30;;;9.07;;
52956;SDS011;38819;42.692;23.342;2023-07-13T07:12:02;20.40;;;8.48;;
52956;SDS011;38819;42.692;23.342;2023-07-13T07:14:28;14.35;;;8.55;;
52956;SDS011;38819;42.692;23.342;2023-07-13T07:16:54;17.67;;;8.85;;
52956;SDS011;38819;42.692;23.342;2023-07-13T07:19:19;16.20;;;9.95;;
52956;SDS011;38819;42.692;23.342;2023-07-13T07:21:45;21.25;;;10.35;;
52956;SDS011;38819;42.692;23.342;2023-07-13T07:24:10;20.45;;;10.63;;
52956;SDS011;38819;42.692;23.342;2023-07-13T07:26:35;14.93;;;9.05;;
52956;SDS011;38819;42.692;23.342;2023-07-13T07:29:01;15.25;;;9.20;;
52956;SDS011;38819;42.692;23.342;2023-07-13T07:31:26;18.42;;;8.18;;
52956;SDS011;38819;42.692;23.342;2023-07-13T07:33:52;23.60;;;8.75;;
52956;SDS011;38819;42.692;23.342;2023-07-13T07:36:17;18.73;;;9.27;;
52956;SDS011;38819;42.692;23.342;2023-07-13T07:38:43;22.08;;;7.85;;
52956;SDS011;38819;42.692;23.342;2023-07-13T07:41:08;15.70;;;8.30;;
52956;SDS011;38819;42.692;23.342;2023-07-13T07:43:34;13.20;;;8.63;;
52956;SDS011;38819;42.692;23.342;2023-07-13T07:46:00;13.05;;;8.98;;
52956;SDS011;38819;42.692;23.342;2023-07-13T07:48:26;13.35;;;7.57;;
52956;SDS011;38819;42.692;23.342;2023-07-13T07:50:51;12.13;;;7.10;;
52956;SDS011;38819;42.692;23.342;2023-07-13T07:53:16;14.10;;;8.30;;
52956;SDS011;38819;42.692;23.342;2023-07-13T07:55:42;14.48;;;7.45;;
52956;SDS011;38819;42.692;23.342;2023-07-13T07:58:08;15.20;;;8.43;;
52956;SDS011;38819;42.692;23.342;2023-07-13T08:00:35;14.80;;;8.50;;
52956;SDS011;38819;42.692;23.342;2023-07-13T08:03:01;13.60;;;7.88;;
52956;SDS011;38819;42.692;23.342;2023-07-13T08:05:27;15.37;;;10.30;;
52956;SDS011;38819;42.692;23.342;2023-07-13T08:07:52;15.27;;;8.88;;
52956;SDS011;38819;42.692;23.342;2023-07-13T08:10:18;13.98;;;7.10;;
52956;SDS011;38819;42.692;23.342;2023-07-13T08:12:44;13.68;;;7.57;;
52956;SDS011;38819;42.692;23.342;2023-07-13T08:15:10;15.57;;;7.47;;
52956;SDS011;38819;42.692;23.342;2023-07-13T08:17:37;14.38;;;7.38;;
52956;SDS011;38819;42.692;23.342;2023-07-13T08:20:03;14.30;;;8.07;;
52956;SDS011;38819;42.692;23.342;2023-07-13T08:22:29;14.20;;;7.70;;
52956;SDS011;38819;42.692;23.342;2023-07-13T08:24:54;19.33;;;8.60;;
52956;SDS011;38819;42.692;23.342;2023-07-13T08:27:23;13.05;;;7.22;;
52956;SDS011;38819;42.692;23.342;2023-07-13T08:29:50;18.23;;;8.23;;
52956;SDS011;38819;42.692;23.342;2023-07-13T08:32:17;14.90;;;7.82;;
52956;SDS011;38819;42.692;23.342;2023-07-13T08:34:43;11.63;;;7.88;;
52956;SDS011;38819;42.692;23.342;2023-07-13T08:37:09;17.08;;;8.23;;
52956;SDS011;38819;42.692;23.342;2023-07-13T08:39:34;15.43;;;7.82;;
52956;SDS011;38819;42.692;23.342;2023-07-13T08:42:05;16.75;;;8.18;;
52956;SDS011;38819;42.692;23.342;2023-07-13T08:47:55;15.20;;;7.47;;
52956;SDS011;38819;42.692;23.342;2023-07-13T08:50:34;16.67;;;10.60;;
52956;SDS011;38819;42.692;23.342;2023-07-13T08:53:05;14.73;;;8.82;;
52956;SDS011;38819;42.692;23.342;2023-07-13T08:55:34;14.88;;;8.63;;
52956;SDS011;38819;42.692;23.342;2023-07-13T08:58:13;13.13;;;7.63;;
52956;SDS011;38819;42.692;23.342;2023-07-13T09:03:12;15.55;;;8.18;;
52956;SDS011;38819;42.692;23.342;2023-07-13T09:05:45;17.42;;;8.55;;
52956;SDS011;38819;42.692;23.342;2023-07-13T09:10:59;19.30;;;8.82;;
52956;SDS011;38819;42.692;23.342;2023-07-13T09:13:43;17.02;;;8.75;;
52956;SDS011;38819;42.692;23.342;2023-07-13T09:16:32;15.00;;;8.43;;
52956;SDS011;38819;42.692;23.342;2023-07-13T09:19:02;16.38;;;7.68;;
52956;SDS011;38819;42.692;23.342;2023-07-13T09:21:31;14.55;;;8.23;;
52956;SDS011;38819;42.692;23.342;2023-07-13T09:24:06;14.32;;;8.50;;
52956;SDS011;38819;42.692;23.342;2023-07-13T09:26:39;21.23;;;8.65;;
52956;SDS011;38819;42.692;23.342;2023-07-13T09:29:13;16.95;;;8.38;;
52956;SDS011;38819;42.692;23.342;2023-07-13T09:31:44;11.57;;;7.88;;
52956;SDS011;38819;42.692;23.342;2023-07-13T09:34:14;15.65;;;8.27;;
52956;SDS011;38819;42.692;23.342;2023-07-13T09:36:40;19.40;;;7.85;;
52956;SDS011;38819;42.692;23.342;2023-07-13T09:39:10;13.43;;;7.82;;
52956;SDS011;38819;42.692;23.342;2023-07-13T09:42:00;14.73;;;8.02;;
52956;SDS011;38819;42.692;23.342;2023-07-13T09:44:30;14.80;;;7.65;;
52956;SDS011;38819;42.692;23.342;2023-07-13T09:47:00;10.63;;;7.43;;
52956;SDS011;38819;42.692;23.342;2023-07-13T09:49:27;22.65;;;8.68;;
52956;SDS011;38819;42.692;23.342;2023-07-13T09:52:05;16.15;;;8.45;;
52956;SDS011;38819;42.692;23.342;2023-07-13T09:54:35;16.25;;;8.15;;
52956;SDS011;38819;42.692;23.342;2023-07-13T09:57:03;13.80;;;7.57;;
52956;SDS011;38819;42.692;23.342;2023-07-13T09:59:39;18.73;;;8.07;;
52956;SDS011;38819;42.692;23.342;2023-07-13T10:02:27;14.73;;;7.97;;
52956;SDS011;38819;42.692;23.342;2023-07-13T10:04:55;16.45;;;6.80;;
52956;SDS011;38819;42.692;23.342;2023-07-13T10:07:23;14.65;;;7.63;;
52956;SDS011;38819;42.692;23.342;2023-07-13T10:09:52;11.75;;;7.72;;
52956;SDS011;38819;42.692;23.342;2023-07-13T10:14:54;11.02;;;6.63;;
52956;SDS011;38819;42.692;23.342;2023-07-13T10:17:26;15.52;;;6.72;;
52956;SDS011;38819;42.692;23.342;2023-07-13T10:19:56;11.25;;;5.72;;
52956;SDS011;38819;42.692;23.342;2023-07-13T10:25:23;11.77;;;4.57;;
52956;SDS011;38819;42.692;23.342;2023-07-13T10:27:51;10.43;;;5.05;;
52956;SDS011;38819;42.692;23.342;2023-07-13T10:30:20;7.97;;;4.60;;
52956;SDS011;38819;42.692;23.342;2023-07-13T10:32:50;11.13;;;5.68;;
52956;SDS011;38819;42.692;23.342;2023-07-13T10:35:17;10.32;;;5.32;;
52956;SDS011;38819;42.692;23.342;2023-07-13T10:40:29;10.65;;;5.13;;
52956;SDS011;38819;42.692;23.342;2023-07-13T10:43:00;12.38;;;4.93;;
52956;SDS011;38819;42.692;23.342;2023-07-13T10:45:33;8.32;;;4.50;;
52956;SDS011;38819;42.692;23.342;2023-07-13T10:48:01;12.80;;;4.63;;
52956;SDS011;38819;42.692;23.342;2023-07-13T10:50:28;8.27;;;4.17;;
52956;SDS011;38819;42.692;23.342;2023-07-13T10:52:55;11.65;;;4.40;;
52956;SDS011;38819;42.692;23.342;2023-07-13T10:55:41;10.98;;;4.78;;
52956;SDS011;38819;42.692;23.342;2023-07-13T11:03:32;10.27;;;4.90;;
52956;SDS011;38819;42.692;23.342;2023-07-13T11:06:04;11.20;;;5.35;;
52956;SDS011;38819;42.692;23.342;2023-07-13T11:10:56;11.20;;;4.75;;
52956;SDS011;38819;42.692;23.342;2023-07-13T11:16:11;10.98;;;7.38;;
52956;SDS011;38819;42.692;23.342;2023-07-13T11:18:47;5.60;;;4.35;;
52956;SDS011;38819;42.692;23.342;2023-07-13T11:21:21;7.90;;;4.43;;
52956;SDS011;38819;42.692;23.342;2023-07-13T11:24:47;8.32;;;4.13;;
52956;SDS011;38819;42.692;23.342;2023-07-13T11:26:42;13.15;;;4.72;;
52956;SDS011;38819;42.692;23.342;2023-07-13T11:31:58;5.43;;;4.15;;
52956;SDS011;38819;42.692;23.342;2023-07-13T11:34:36;9.75;;;4.90;;
52956;SDS011;38819;42.692;23.342;2023-07-13T11:37:07;9.23;;;4.93;;
52956;SDS011;38819;42.692;23.342;2023-07-13T11:39:38;10.88;;;4.97;;
52956;SDS011;38819;42.692;23.342;2023-07-13T11:42:09;13.88;;;4.47;;
52956;SDS011;38819;42.692;23.342;2023-07-13T11:44:41;9.30;;;4.30;;
52956;SDS011;38819;42.692;23.342;2023-07-13T11:47:10;6.43;;;4.82;;
52956;SDS011;38819;42.692;23.342;2023-07-13T11:49:42;7.55;;;4.70;;
52956;SDS011;38819;42.692;23.342;2023-07-13T11:52:14;6.38;;;4.07;;
52956;SDS011;38819;42.692;23.342;2023-07-13T11:54:51;5.65;;;4.05;;
52956;SDS011;38819;42.692;23.342;2023-07-13T11:57:28;9.43;;;4.57;;
52956;SDS011;38819;42.692;23.342;2023-07-13T11:59:56;12.48;;;4.80;;
52956;SDS011;38819;42.692;23.342;2023-07-13T12:05:02;7.65;;;4.68;;
52956;SDS011;38819;42.692;23.342;2023-07-13T12:07:31;12.45;;;4.10;;
52956;SDS011;38819;42.692;23.342;2023-07-13T12:12:55;8.90;;;4.40;;
52956;SDS011;38819;42.692;23.342;2023-07-13T12:15:23;18.58;;;4.68;;
52956;SDS011;38819;42.692;23.342;2023-07-13T12:17:56;6.60;;;4.43;;
52956;SDS011;38819;42.692;23.342;2023-07-13T12:22:58;8.10;;;4.18;;
52956;SDS011;38819;42.692;23.342;2023-07-13T12:25:24;8.23;;;4.10;;
52956;SDS011;38819;42.692;23.342;2023-07-13T12:27:50;13.05;;;4.55;;
52956;SDS011;38819;42.692;23.342;2023-07-13T12:30:29;11.63;;;4.87;;
52956;SDS011;38819;42.692;23.342;2023-07-13T12:35:38;9.38;;;4.50;;
52956;SDS011;38819;42.692;23.342;2023-07-13T12:38:10;8.57;;;4.22;;
52956;SDS011;38819;42.692;23.342;2023-07-13T12:40:37;16.45;;;4.72;;
52956;SDS011;38819;42.692;23.342;2023-07-13T12:43:05;10.63;;;4.50;;
52956;SDS011;38819;42.692;23.342;2023-07-13T12:45:36;12.07;;;4.28;;
52956;SDS011;38819;42.692;23.342;2023-07-13T12:48:10;9.60;;;3.60;;
52956;SDS011;38819;42.692;23.342;2023-07-13T12:50:40;5.20;;;3.45;;
52956;SDS011;38819;42.692;23.342;2023-07-13T12:53:12;18.33;;;4.38;;
52956;SDS011;38819;42.692;23.342;2023-07-13T12:55:44;7.13;;;4.30;;
52956;SDS011;38819;42.692;23.342;2023-07-13T13:00:54;10.15;;;3.83;;
52956;SDS011;38819;42.692;23.342;2023-07-13T13:03:33;9.70;;;4.32;;
52956;SDS011;38819;42.692;23.342;2023-07-13T13:06:22;9.10;;;3.97;;
52956;SDS011;38819;42.692;23.342;2023-07-13T13:08:50;14.45;;;4.97;;
52956;SDS011;38819;42.692;23.342;2023-07-13T13:11:21;12.38;;;3.85;;
52956;SDS011;38819;42.692;23.342;2023-07-13T13:13:48;11.27;;;4.35;;
52956;SDS011;38819;42.692;23.342;2023-07-13T13:16:17;13.30;;;4.30;;
52956;SDS011;38819;42.692;23.342;2023-07-13T13:18:53;9.38;;;4.20;;
52956;SDS011;38819;42.692;23.342;2023-07-13T13:21:22;15.82;;;4.55;;
52956;SDS011;38819;42.692;23.342;2023-07-13T13:23:49;10.82;;;4.90;;
52956;SDS011;38819;42.692;23.342;2023-07-13T13:26:16;12.70;;;4.15;;
52956;SDS011;38819;42.692;23.342;2023-07-13T13:28:42;7.90;;;4.60;;
52956;SDS011;38819;42.692;23.342;2023-07-13T13:31:09;8.77;;;3.85;;
52956;SDS011;38819;42.692;23.342;2023-07-13T13:33:39;9.20;;;4.13;;
52956;SDS011;38819;42.692;23.342;2023-07-13T13:36:26;13.15;;;4.28;;
52956;SDS011;38819;42.692;23.342;2023-07-13T13:38:51;7.75;;;4.20;;
52956;SDS011;38819;42.692;23.342;2023-07-13T13:41:17;8.27;;;4.17;;
52956;SDS011;38819;42.692;23.342;2023-07-13T13:43:44;12.27;;;4.47;;
52956;SDS011;38819;42.692;23.342;2023-07-13T13:46:16;14.18;;;4.25;;
52956;SDS011;38819;42.692;23.342;2023-07-13T13:48:44;14.30;;;4.78;;
52956;SDS011;38819;42.692;23.342;2023-07-13T13:51:14;11.37;;;4.53;;
52956;SDS011;38819;42.692;23.342;2023-07-13T13:53:42;16.90;;;4.10;;
52956;SDS011;38819;42.692;23.342;2023-07-13T13:56:08;10.37;;;4.83;;
52956;SDS011;38819;42.692;23.342;2023-07-13T13:58:33;14.33;;;4.43;;
52956;SDS011;38819;42.692;23.342;2023-07-13T14:00:59;6.33;;;4.23;;
52956;SDS011;38819;42.692;23.342;2023-07-13T14:03:25;10.23;;;3.90;;
52956;SDS011;38819;42.692;23.342;2023-07-13T14:05:53;13.60;;;4.18;;
52956;SDS011;38819;42.692;23.342;2023-07-13T14:08:22;9.90;;;3.97;;
52956;SDS011;38819;42.692;23.342;2023-07-13T14:10:48;17.57;;;4.40;;
52956;SDS011;38819;42.692;23.342;2023-07-13T14:15:45;13.90;;;4.35;;
52956;SDS011;38819;42.692;23.342;2023-07-13T14:18:10;11.57;;;4.33;;
52956;SDS011;38819;42.692;23.342;2023-07-13T14:20:36;9.93;;;3.92;;
52956;SDS011;38819;42.692;23.342;2023-07-13T14:23:02;13.27;;;4.83;;
52956;SDS011;38819;42.692;23.342;2023-07-13T14:25:28;11.80;;;4.17;;
52956;SDS011;38819;42.692;23.342;2023-07-13T14:27:55;10.23;;;3.97;;
52956;SDS011;38819;42.692;23.342;2023-07-13T14:30:24;9.68;;;4.00;;
52956;SDS011;38819;42.692;23.342;2023-07-13T14:32:50;13.68;;;4.00;;
52956;SDS011;38819;42.692;23.342;2023-07-13T14:35:18;12.87;;;4.00;;
52956;SDS011;38819;42.692;23.342;2023-07-13T14:37:47;10.73;;;4.07;;
52956;SDS011;38819;42.692;23.342;2023-07-13T14:42:38;8.17;;;4.07;;
52956;SDS011;38819;42.692;23.342;2023-07-13T14:45:04;9.60;;;4.07;;
52956;SDS011;38819;42.692;23.342;2023-07-13T14:47:30;15.35;;;4.70;;
52956;SDS011;38819;42.692;23.342;2023-07-13T14:49:55;10.93;;;3.70;;
52956;SDS011;38819;42.692;23.342;2023-07-13T14:52:22;13.90;;;4.03;;
52956;SDS011;38819;42.692;23.342;2023-07-13T14:54:48;12.63;;;4.30;;
52956;SDS011;38819;42.692;23.342;2023-07-13T14:57:18;9.43;;;4.00;;
52956;SDS011;38819;42.692;23.342;2023-07-13T14:59:45;25.77;;;7.95;;
52956;SDS011;38819;42.692;23.342;2023-07-13T15:02:30;19.20;;;5.20;;
52956;SDS011;38819;42.692;23.342;2023-07-13T15:05:05;10.07;;;4.25;;
52956;SDS011;38819;42.692;23.342;2023-07-13T15:07:37;13.18;;;5.13;;
52956;SDS011;38819;42.692;23.342;2023-07-13T15:10:08;11.47;;;4.23;;
52956;SDS011;38819;42.692;23.342;2023-07-13T15:12:39;10.05;;;4.85;;
52956;SDS011;38819;42.692;23.342;2023-07-13T15:15:04;12.63;;;4.50;;
52956;SDS011;38819;42.692;23.342;2023-07-13T15:17:37;9.90;;;4.00;;
52956;SDS011;38819;42.692;23.342;2023-07-13T15:20:06;11.95;;;4.32;;
52956;SDS011;38819;42.692;23.342;2023-07-13T15:22:37;13.30;;;4.05;;
52956;SDS011;38819;42.692;23.342;2023-07-13T15:25:02;10.70;;;4.13;;